Time;durP1;ratioP1;P1;durP2;ratioP2;P2;SDS_P1;SDS_P2;PMS_P1;PMS_P2;Temp;Humidity;BMP_temperature;BMP_pressure;BME280_temperature;BME280_humidity;BME280_pressure;Samples;Min_cycle;Max_cycle;Signal;HPM_P1;HPM_P2
2022/12/14 00:00:43;;;;;;;8.73;8.43;;;19.80;41.60;;;;;;5014777;28;20442;-48
2022/12/14 00:03:10;;;;;;;8.20;7.90;;;19.70;41.60;;;;;;5014580;28;21000;-49
2022/12/14 00:05:37;;;;;;;7.87;7.67;;;19.80;41.60;;;;;;5015240;28;20445;-49
2022/12/14 00:08:04;;;;;;;7.90;7.70;;;19.70;41.60;;;;;;5014466;28;20461;-50
2022/12/14 00:10:32;;;;;;;8.60;8.30;;;19.70;41.60;;;;;;5014453;28;20535;-49
2022/12/14 00:13:00;;;;;;;8.10;7.90;;;19.70;41.60;;;;;;5014154;28;20446;-52
2022/12/14 00:15:27;;;;;;;8.80;8.40;;;19.70;41.60;;;;;;5014787;28;20442;-50
2022/12/14 00:17:54;;;;;;;8.20;7.90;;;19.70;41.60;;;;;;5015242;28;20835;-48
2022/12/14 00:20:21;;;;;;;8.43;8.13;;;19.70;41.60;;;;;;5014989;28;20446;-50
2022/12/14 00:22:48;;;;;;;8.87;8.57;;;19.70;41.60;;;;;;5014689;28;20536;-49
2022/12/14 00:25:15;;;;;;;8.70;8.40;;;19.70;41.60;;;;;;5014294;28;20442;-49
2022/12/14 00:27:43;;;;;;;8.60;8.20;;;19.70;41.60;;;;;;5014084;28;20466;-49
2022/12/14 00:30:13;;;;;;;8.20;7.90;;;19.70;41.60;;;;;;5013843;28;20446;-49
2022/12/14 00:32:40;;;;;;;8.67;8.30;;;19.60;41.60;;;;;;5013787;28;20514;-50
2022/12/14 00:35:08;;;;;;;8.70;8.30;;;19.70;41.60;;;;;;5013736;28;20465;-52
2022/12/14 00:37:35;;;;;;;8.10;7.90;;;19.70;41.60;;;;;;5014050;28;20462;-49
2022/12/14 00:40:02;;;;;;;8.43;8.13;;;19.70;41.60;;;;;;5013427;28;20543;-49
2022/12/14 00:42:29;;;;;;;9.00;8.60;;;19.60;41.50;;;;;;5014149;28;20442;-52
2022/12/14 00:44:56;;;;;;;8.47;8.17;;;19.60;41.50;;;;;;5013700;28;20478;-49
2022/12/14 00:47:24;;;;;;;8.13;7.93;;;19.60;41.50;;;;;;5013226;28;20449;-48
2022/12/14 00:49:51;;;;;;;8.80;8.50;;;19.60;41.60;;;;;;5013645;28;20541;-49
2022/12/14 00:52:18;;;;;;;7.80;7.60;;;19.60;41.60;;;;;;5013543;28;20438;-49
2022/12/14 00:54:45;;;;;;;7.77;7.57;;;19.60;41.60;;;;;;5013613;28;20947;-48
2022/12/14 00:57:12;;;;;;;8.57;8.27;;;19.60;41.60;;;;;;5012936;28;20454;-49
2022/12/14 00:59:39;;;;;;;8.27;8.03;;;19.60;41.60;;;;;;5013197;28;20442;-49
2022/12/14 01:02:06;;;;;;;8.40;8.10;;;19.60;42.10;;;;;;5013329;28;20461;-49
2022/12/14 01:04:35;;;;;;;8.20;7.90;;;19.60;41.60;;;;;;5013084;28;20576;-48
2022/12/14 01:07:02;;;;;;;8.43;8.20;;;19.60;41.60;;;;;;5013053;28;20442;-48
2022/12/14 01:09:28;;;;;;;8.13;7.93;;;19.60;41.60;;;;;;5012951;28;20466;-49
2022/12/14 01:11:55;;;;;;;8.40;8.10;;;19.60;41.60;;;;;;5012416;28;20446;-49
2022/12/14 01:14:22;;;;;;;8.33;8.00;;;19.60;41.60;;;;;;5012837;28;20438;-48
2022/12/14 01:16:49;;;;;;;8.20;7.97;;;19.60;41.60;;;;;;5012497;28;20446;-49
2022/12/14 01:19:16;;;;;;;8.13;7.93;;;19.50;41.50;;;;;;5012711;28;20472;-48
2022/12/14 01:21:44;;;;;;;8.47;8.17;;;19.50;41.60;;;;;;5012838;28;20541;-50
2022/12/14 01:24:11;;;;;;;8.07;7.87;;;19.50;41.60;;;;;;5013163;28;20485;-50
2022/12/14 01:26:39;;;;;;;8.43;8.00;;;19.50;41.60;;;;;;5012692;28;20454;-49
2022/12/14 01:29:07;;;;;;;8.50;8.30;;;19.60;41.60;;;;;;5012849;28;20557;-48
2022/12/14 01:31:35;;;;;;;8.83;8.53;;;19.60;41.70;;;;;;5012859;28;20446;-49
2022/12/14 01:34:02;;;;;;;8.50;8.10;;;19.50;41.60;;;;;;5012923;28;20438;-49
2022/12/14 01:36:32;;;;;;;8.67;8.37;;;19.50;41.60;;;;;;5012509;28;20452;-50
2022/12/14 01:39:02;;;;;;;8.27;8.00;;;19.50;41.70;;;;;;5012449;28;20783;-49
2022/12/14 01:41:31;;;;;;;8.37;8.07;;;19.50;41.70;;;;;;5012674;28;20949;-49
2022/12/14 01:44:00;;;;;;;8.43;8.13;;;19.50;41.70;;;;;;5012383;28;21154;-49
2022/12/14 01:46:31;;;;;;;9.00;8.70;;;19.50;41.80;;;;;;5012212;28;20976;-49
2022/12/14 01:49:04;;;;;;;8.40;8.10;;;19.50;41.80;;;;;;5012460;28;20478;-50
2022/12/14 01:51:34;;;;;;;8.03;7.83;;;19.50;41.70;;;;;;5012204;28;20453;-49
2022/12/14 01:54:04;;;;;;;9.10;8.80;;;19.50;41.70;;;;;;5011739;28;20438;-49
2022/12/14 01:56:34;;;;;;;8.00;7.80;;;19.50;41.70;;;;;;5012001;28;20446;-49
2022/12/14 01:59:04;;;;;;;7.90;7.70;;;19.50;41.70;;;;;;5011963;28;20462;-49
2022/12/14 02:01:31;;;;;;;8.90;8.53;;;19.50;41.70;;;;;;5011801;28;21017;-49
2022/12/14 02:03:58;;;;;;;8.17;7.97;;;19.50;41.70;;;;;;5011528;28;20482;-51
2022/12/14 02:06:29;;;;;;;8.50;8.20;;;19.50;41.70;;;;;;4992446;28;20478;-49
2022/12/14 02:08:57;;;;;;;8.67;8.37;;;19.50;41.60;;;;;;4991879;28;20467;-50
2022/12/14 02:11:36;;;;;;;8.20;8.00;;;19.50;41.70;;;;;;4992125;28;20530;-49
2022/12/14 02:14:03;;;;;;;8.30;8.00;;;19.50;41.70;;;;;;4992999;28;20842;-49
2022/12/14 02:16:31;;;;;;;7.63;7.43;;;19.50;41.70;;;;;;5011933;28;20448;-52
2022/12/14 02:18:58;;;;;;;8.40;8.10;;;19.50;41.60;;;;;;5011593;28;20465;-53
2022/12/14 02:21:42;;;;;;;8.80;8.50;;;19.50;41.70;;;;;;5011765;28;20940;-49
2022/12/14 02:24:42;;;;;;;8.30;8.10;;;19.50;41.60;;;;;;5015432;28;20486;-49
2022/12/14 02:27:37;;;;;;;8.77;8.37;;;19.50;41.70;;;;;;5015753;28;20452;-49
2022/12/14 02:30:07;;;;;;;8.70;8.40;;;19.40;41.60;;;;;;5015387;28;20452;-49
2022/12/14 02:33:00;;;;;;;8.40;8.13;;;19.40;41.60;;;;;;5015586;28;20541;-49
2022/12/14 02:35:38;;;;;;;7.67;7.47;;;19.50;41.70;;;;;;4997719;28;20456;-49
2022/12/14 02:38:15;;;;;;;7.70;7.40;;;19.40;41.60;;;;;;5015350;28;20552;-49
2022/12/14 02:40:52;;;;;;;7.93;7.63;;;19.40;41.60;;;;;;5015278;28;20532;-49
2022/12/14 02:43:27;;;;;;;8.07;7.77;;;19.40;41.60;;;;;;5014946;28;20528;-49
2022/12/14 02:46:04;;;;;;;7.77;7.57;;;19.50;41.60;;;;;;5015342;28;20463;-49
2022/12/14 02:48:38;;;;;;;8.07;7.77;;;19.50;41.60;;;;;;5015020;28;20484;-51
2022/12/14 02:51:13;;;;;;;7.57;7.37;;;19.50;41.60;;;;;;5014888;28;20523;-49
2022/12/14 02:53:46;;;;;;;7.87;7.57;;;19.40;41.60;;;;;;5015321;28;20451;-49
2022/12/14 02:56:17;;;;;;;7.77;7.53;;;19.50;41.70;;;;;;5015125;28;20537;-49
2022/12/14 02:58:49;;;;;;;7.97;7.67;;;19.50;41.60;;;;;;5014911;28;20480;-49
2022/12/14 03:01:21;;;;;;;7.93;7.53;;;19.50;41.70;;;;;;5014669;28;20460;-49
2022/12/14 03:03:48;;;;;;;7.83;7.63;;;19.40;41.60;;;;;;5015034;28;20477;-49
2022/12/14 03:06:24;;;;;;;7.80;7.60;;;19.40;41.60;;;;;;5014889;28;20461;-50
2022/12/14 03:08:54;;;;;;;7.90;7.70;;;19.40;41.60;;;;;;5014725;28;20524;-49
2022/12/14 03:11:25;;;;;;;7.97;7.77;;;19.50;41.60;;;;;;5014456;28;20452;-48
2022/12/14 03:13:57;;;;;;;7.70;7.50;;;19.50;41.60;;;;;;5014750;28;20442;-51
2022/12/14 03:16:31;;;;;;;7.70;7.50;;;19.50;41.70;;;;;;5014847;28;20452;-49
2022/12/14 03:19:03;;;;;;;7.90;7.70;;;19.40;41.60;;;;;;5014264;28;20548;-49
2022/12/14 03:21:34;;;;;;;8.03;7.83;;;19.40;41.60;;;;;;5014779;28;20453;-49
2022/12/14 03:24:05;;;;;;;8.60;8.30;;;19.40;41.60;;;;;;5014550;28;20487;-49
2022/12/14 03:26:38;;;;;;;7.63;7.47;;;19.40;41.60;;;;;;5014604;28;20446;-52
2022/12/14 03:29:10;;;;;;;7.80;7.60;;;19.40;41.60;;;;;;5014145;28;20470;-49
2022/12/14 03:31:43;;;;;;;7.93;7.70;;;19.40;41.70;;;;;;5014598;28;20445;-49
2022/12/14 03:34:15;;;;;;;7.63;7.43;;;19.40;41.60;;;;;;5014138;28;20529;-49
2022/12/14 03:36:46;;;;;;;8.13;7.93;;;19.40;41.60;;;;;;5014395;28;20446;-49
2022/12/14 03:39:19;;;;;;;8.00;7.70;;;19.40;41.60;;;;;;5013966;28;20557;-49
2022/12/14 03:41:56;;;;;;;7.97;7.73;;;19.40;41.60;;;;;;5014292;28;20484;-52
2022/12/14 03:44:32;;;;;;;8.17;7.90;;;19.40;41.60;;;;;;5014195;28;20905;-49
2022/12/14 03:47:11;;;;;;;8.13;7.93;;;19.40;41.60;;;;;;5014182;28;20536;-49
2022/12/14 03:49:50;;;;;;;8.00;7.80;;;19.40;41.60;;;;;;5013763;28;20438;-49
2022/12/14 03:52:25;;;;;;;8.77;8.47;;;19.40;41.60;;;;;;5014037;28;20437;-49
2022/12/14 03:55:07;;;;;;;8.33;8.03;;;19.40;41.70;;;;;;5014324;28;20438;-49
2022/12/14 03:57:48;;;;;;;7.50;7.30;;;19.40;41.60;;;;;;5013783;28;20494;-49
2022/12/14 04:00:19;;;;;;;8.33;8.13;;;19.40;41.60;;;;;;5013199;28;20449;-49
2022/12/14 04:02:52;;;;;;;8.60;8.30;;;19.40;41.60;;;;;;5013899;28;20529;-49
2022/12/14 04:05:25;;;;;;;8.03;7.77;;;19.40;41.60;;;;;;5013718;28;20488;-49
2022/12/14 04:07:59;;;;;;;7.90;7.70;;;19.40;41.60;;;;;;5013513;28;20885;-48
2022/12/14 04:19:06;;;;;;;8.60;8.20;;;19.50;41.50;;;;;;5013300;28;20792;-49
2022/12/14 04:21:41;;;;;;;8.80;8.60;;;19.50;41.50;;;;;;5013463;28;21012;-49
2022/12/14 04:27:03;;;;;;;8.30;8.10;;;19.60;41.50;;;;;;5013461;28;20545;-52
2022/12/14 04:32:23;;;;;;;7.87;7.67;;;19.60;41.50;;;;;;5013826;28;20805;-48
2022/12/14 04:34:57;;;;;;;8.10;7.90;;;19.60;41.40;;;;;;5013409;28;20444;-49
2022/12/14 04:37:27;;;;;;;8.37;8.17;;;19.60;41.50;;;;;;5012882;28;20443;-52
2022/12/14 04:39:57;;;;;;;8.70;8.50;;;19.60;41.50;;;;;;5013088;28;20882;-51
2022/12/14 04:42:28;;;;;;;8.30;8.10;;;19.60;41.50;;;;;;5013038;28;20532;-49
2022/12/14 04:44:59;;;;;;;8.93;8.53;;;19.70;41.60;;;;;;5012535;28;20492;-49
2022/12/14 04:47:30;;;;;;;8.53;8.23;;;19.70;41.50;;;;;;5012495;28;20466;-53
2022/12/14 04:50:03;;;;;;;8.63;8.37;;;19.70;41.70;;;;;;5012796;28;20541;-52
2022/12/14 04:52:35;;;;;;;8.50;8.20;;;19.90;42.10;;;;;;5012984;28;20438;-52
2022/12/14 04:55:08;;;;;;;8.53;8.23;;;19.90;42.00;;;;;;5012896;28;20460;-52
2022/12/14 04:57:41;;;;;;;8.63;8.33;;;19.90;41.90;;;;;;5012467;28;20468;-55
2022/12/14 05:00:10;;;;;;;8.50;8.30;;;20.00;41.90;;;;;;5012670;28;20450;-53
2022/12/14 05:02:51;;;;;;;8.70;8.40;;;20.00;41.80;;;;;;5013032;28;20445;-57
2022/12/14 05:05:26;;;;;;;7.90;7.70;;;20.00;41.70;;;;;;5012867;28;20788;-53
2022/12/14 05:07:59;;;;;;;8.27;8.07;;;20.00;41.60;;;;;;5012570;28;20560;-53
2022/12/14 05:10:36;;;;;;;8.73;8.43;;;20.00;41.50;;;;;;5012463;28;20446;-55
2022/12/14 05:13:07;;;;;;;8.50;8.20;;;20.00;41.50;;;;;;5012577;28;20537;-55
2022/12/14 05:15:39;;;;;;;8.00;7.67;;;20.00;41.50;;;;;;5012395;28;20456;-52
2022/12/14 05:18:07;;;;;;;8.50;8.20;;;20.00;42.00;;;;;;5012656;28;20476;-54
2022/12/14 05:20:35;;;;;;;8.13;7.93;;;20.00;41.40;;;;;;5012204;28;20446;-52
2022/12/14 05:23:02;;;;;;;8.90;8.70;;;20.00;41.40;;;;;;5012550;28;20448;-58
2022/12/14 05:25:29;;;;;;;8.53;8.33;;;20.00;41.60;;;;;;5012300;28;20812;-54
2022/12/14 05:27:56;;;;;;;8.60;8.40;;;20.00;41.40;;;;;;5012291;28;20564;-54
2022/12/14 05:30:22;;;;;;;8.67;8.47;;;20.00;41.30;;;;;;5012119;28;20464;-55
2022/12/14 05:32:49;;;;;;;10.30;9.57;;;20.00;41.40;;;;;;5012389;28;20446;-57
2022/12/14 05:35:16;;;;;;;10.30;9.60;;;20.00;41.50;;;;;;5012004;28;20453;-55
2022/12/14 05:37:44;;;;;;;10.73;9.83;;;20.00;41.70;;;;;;5012533;28;20462;-57
2022/12/14 05:40:12;;;;;;;11.57;10.77;;;20.00;41.90;;;;;;5011952;28;20446;-58
2022/12/14 05:42:39;;;;;;;12.43;11.30;;;20.00;42.30;;;;;;5012234;28;20646;-57
2022/12/14 05:45:08;;;;;;;14.93;11.40;;;20.00;43.30;;;;;;5010188;28;20838;-58
2022/12/14 05:47:35;;;;;;;11.60;10.43;;;20.00;43.70;;;;;;5011498;28;20893;-55
2022/12/14 05:50:02;;;;;;;14.60;10.53;;;20.10;44.40;;;;;;5011914;28;20450;-56
2022/12/14 05:52:28;;;;;;;13.10;10.20;;;20.10;44.40;;;;;;5012085;28;20437;-58
2022/12/14 05:54:56;;;;;;;10.83;9.93;;;20.10;44.30;;;;;;5011929;28;20445;-53
2022/12/14 05:57:23;;;;;;;15.13;10.87;;;20.10;44.10;;;;;;5011915;28;20442;-55
2022/12/14 05:59:50;;;;;;;9.87;9.33;;;20.20;43.90;;;;;;5011778;28;20453;-58
2022/12/14 06:02:17;;;;;;;10.77;10.27;;;20.10;43.60;;;;;;5011792;28;20448;-54
2022/12/14 06:04:44;;;;;;;13.30;12.10;;;20.10;44.00;;;;;;5011849;28;20477;-53
2022/12/14 06:07:11;;;;;;;11.03;10.13;;;20.10;43.20;;;;;;5011758;28;20530;-57
2022/12/14 06:09:38;;;;;;;10.93;9.93;;;20.10;43.10;;;;;;5011594;28;21012;-55
2022/12/14 06:12:06;;;;;;;10.70;10.00;;;20.10;42.90;;;;;;5011837;28;20532;-56
2022/12/14 06:14:33;;;;;;;11.03;10.00;;;20.10;42.80;;;;;;5011741;28;20548;-57
2022/12/14 06:17:00;;;;;;;11.57;10.43;;;20.10;42.70;;;;;;5011868;28;20448;-56
2022/12/14 06:19:27;;;;;;;11.00;10.40;;;20.10;42.60;;;;;;5011585;28;20466;-56
2022/12/14 06:21:54;;;;;;;10.70;10.00;;;20.10;42.50;;;;;;5011860;28;20454;-59
2022/12/14 06:24:20;;;;;;;9.90;9.40;;;20.00;42.40;;;;;;5012244;28;20449;-58
2022/12/14 06:26:47;;;;;;;9.87;9.40;;;20.00;42.30;;;;;;5019354;28;20433;-59
2022/12/14 06:29:17;;;;;;;11.20;10.60;;;20.00;42.30;;;;;;5023415;28;20485;-59
2022/12/14 06:31:44;;;;;;;10.20;9.43;;;20.00;42.20;;;;;;5028015;28;20437;-59
2022/12/14 06:34:11;;;;;;;10.43;9.43;;;19.90;42.10;;;;;;5027101;28;20482;-59
2022/12/14 06:36:40;;;;;;;10.33;9.63;;;19.90;42.10;;;;;;5027591;28;20492;-60
2022/12/14 06:39:10;;;;;;;10.30;8.70;;;19.80;42.00;;;;;;5027451;28;20498;-59
2022/12/14 06:41:37;;;;;;;9.50;9.20;;;19.80;42.00;;;;;;5019713;28;20933;-59
2022/12/14 06:44:05;;;;;;;9.63;8.83;;;19.80;42.00;;;;;;5011758;28;20450;-55
2022/12/14 06:46:34;;;;;;;9.90;9.10;;;19.70;41.90;;;;;;5011476;28;20482;-57
2022/12/14 06:49:02;;;;;;;10.10;9.50;;;19.70;41.90;;;;;;5011402;28;20505;-57
2022/12/14 06:51:28;;;;;;;10.03;9.27;;;19.70;41.80;;;;;;5011479;28;20449;-54
2022/12/14 06:53:56;;;;;;;10.93;9.77;;;19.70;42.00;;;;;;5011413;28;20550;-57
2022/12/14 06:56:25;;;;;;;10.20;9.80;;;19.60;41.70;;;;;;5011416;28;20448;-56
2022/12/14 06:58:53;;;;;;;9.33;8.90;;;19.60;41.70;;;;;;5011260;28;20908;-56
2022/12/14 07:01:22;;;;;;;9.70;9.10;;;19.60;41.60;;;;;;5011359;28;20534;-55
2022/12/14 07:03:53;;;;;;;10.00;9.30;;;19.60;41.60;;;;;;5011510;28;20453;-55
2022/12/14 07:06:21;;;;;;;9.50;8.90;;;19.50;41.50;;;;;;5011260;28;20576;-58
2022/12/14 07:08:48;;;;;;;9.60;9.10;;;19.50;41.50;;;;;;5011997;28;20977;-54
2022/12/14 07:11:16;;;;;;;10.53;9.87;;;19.50;41.50;;;;;;5014734;28;20442;-54
2022/12/14 07:13:43;;;;;;;8.87;8.47;;;19.50;41.50;;;;;;5014831;28;20517;-54
2022/12/14 07:16:14;;;;;;;10.50;9.93;;;19.40;41.40;;;;;;5014819;28;20437;-55
2022/12/14 07:18:41;;;;;;;9.43;9.10;;;19.40;41.40;;;;;;5014644;28;20469;-54
2022/12/14 07:21:10;;;;;;;10.03;9.37;;;19.40;41.40;;;;;;5014912;28;20544;-53
2022/12/14 07:23:39;;;;;;;9.93;9.43;;;19.40;41.30;;;;;;5014502;28;20537;-58
2022/12/14 07:26:08;;;;;;;9.53;9.23;;;19.30;41.30;;;;;;5014550;28;20572;-53
2022/12/14 07:28:36;;;;;;;10.40;10.00;;;19.30;41.30;;;;;;5014436;28;20473;-54
2022/12/14 07:31:05;;;;;;;10.20;9.70;;;19.30;41.30;;;;;;5014318;28;20557;-54
2022/12/14 07:33:32;;;;;;;9.87;9.47;;;19.30;41.30;;;;;;5014528;28;20457;-56
2022/12/14 07:36:04;;;;;;;9.40;9.10;;;19.30;41.30;;;;;;5014428;28;20454;-53
2022/12/14 07:38:32;;;;;;;10.23;9.80;;;19.20;41.10;;;;;;5014266;28;20473;-57
2022/12/14 07:41:04;;;;;;;9.53;9.03;;;19.20;41.20;;;;;;5014208;28;20448;-56
2022/12/14 07:43:31;;;;;;;10.63;10.23;;;19.20;41.20;;;;;;5014181;28;20452;-56
2022/12/14 07:46:02;;;;;;;10.10;9.60;;;19.20;41.20;;;;;;5014120;28;20488;-55
2022/12/14 07:48:29;;;;;;;9.93;9.53;;;19.20;41.20;;;;;;5014606;28;20478;-56
2022/12/14 07:51:01;;;;;;;9.50;9.17;;;19.20;41.30;;;;;;5013938;28;20446;-56
2022/12/14 07:53:28;;;;;;;9.93;9.50;;;19.20;41.20;;;;;;5014010;28;20452;-54
2022/12/14 07:56:01;;;;;;;9.20;8.90;;;19.10;41.10;;;;;;5014046;28;20445;-56
2022/12/14 07:58:27;;;;;;;9.17;8.87;;;19.10;41.10;;;;;;5013866;28;20466;-59
2022/12/14 08:00:54;;;;;;;9.70;9.23;;;19.10;41.10;;;;;;5013721;28;20450;-56
2022/12/14 08:03:21;;;;;;;9.60;9.20;;;19.10;41.10;;;;;;5013908;28;20832;-56
2022/12/14 08:05:48;;;;;;;10.13;9.80;;;19.10;41.10;;;;;;5013741;28;20481;-54
2022/12/14 08:08:15;;;;;;;10.07;9.67;;;19.00;41.60;;;;;;5013694;28;20472;-58
2022/12/14 08:10:42;;;;;;;9.40;9.10;;;19.00;41.00;;;;;;5013543;28;20452;-57
2022/12/14 08:13:10;;;;;;;9.63;9.23;;;19.00;41.00;;;;;;5013937;28;20446;-54
2022/12/14 08:15:38;;;;;;;10.03;9.63;;;19.00;41.00;;;;;;5013860;28;20449;-55
2022/12/14 08:18:05;;;;;;;10.07;9.60;;;19.00;41.00;;;;;;5013637;28;20824;-54
2022/12/14 08:20:32;;;;;;;10.87;10.47;;;18.90;40.90;;;;;;5013268;28;20533;-56
2022/12/14 08:22:58;;;;;;;9.03;8.73;;;18.90;41.00;;;;;;5013498;28;20469;-54
2022/12/14 08:25:25;;;;;;;9.57;9.27;;;18.90;41.00;;;;;;5013476;28;20492;-53
2022/12/14 08:27:52;;;;;;;9.43;9.10;;;18.90;40.90;;;;;;5013419;28;20839;-55
2022/12/14 08:30:20;;;;;;;10.47;9.97;;;18.90;40.90;;;;;;5013294;28;20452;-58
2022/12/14 08:32:47;;;;;;;8.80;8.50;;;18.90;41.00;;;;;;5013381;28;20525;-55
2022/12/14 08:35:14;;;;;;;8.90;8.60;;;18.90;41.00;;;;;;5013236;28;20457;-54
2022/12/14 08:37:41;;;;;;;9.00;8.70;;;18.90;40.90;;;;;;5013104;28;20465;-54
2022/12/14 08:40:09;;;;;;;9.00;8.70;;;18.90;41.00;;;;;;5013118;28;20442;-57
2022/12/14 08:42:35;;;;;;;9.63;9.30;;;18.80;40.90;;;;;;5013089;28;20496;-53
2022/12/14 08:45:02;;;;;;;9.20;8.80;;;18.80;40.90;;;;;;5013012;28;20533;-56
2022/12/14 08:47:31;;;;;;;10.10;9.30;;;18.80;40.90;;;;;;5012874;28;20482;-53
2022/12/14 08:49:58;;;;;;;9.20;8.80;;;18.80;40.90;;;;;;5012912;28;20536;-56
2022/12/14 08:52:25;;;;;;;9.80;9.20;;;18.80;40.90;;;;;;5013063;28;20450;-56
2022/12/14 08:54:51;;;;;;;9.23;8.93;;;18.80;40.90;;;;;;5013023;28;20937;-58
2022/12/14 08:57:18;;;;;;;9.47;9.10;;;18.80;40.90;;;;;;5012904;28;20540;-57
2022/12/14 08:59:45;;;;;;;9.33;8.93;;;18.80;40.90;;;;;;5012652;28;20442;-56
2022/12/14 09:02:12;;;;;;;8.67;8.47;;;18.70;40.80;;;;;;5012760;28;20452;-57
2022/12/14 09:04:40;;;;;;;9.30;9.00;;;18.70;40.80;;;;;;5012707;28;20452;-57
2022/12/14 09:07:07;;;;;;;9.60;9.30;;;18.70;40.90;;;;;;5012600;28;20852;-58
2022/12/14 09:09:35;;;;;;;9.03;8.77;;;18.70;40.80;;;;;;5012691;28;20448;-54
2022/12/14 09:12:05;;;;;;;9.60;9.10;;;18.70;40.80;;;;;;5012618;28;20454;-56
2022/12/14 09:14:32;;;;;;;9.07;8.77;;;18.70;40.80;;;;;;5012851;28;20461;-54
2022/12/14 09:16:59;;;;;;;8.90;8.60;;;18.70;40.90;;;;;;5012569;28;20434;-56
2022/12/14 09:19:26;;;;;;;9.17;8.87;;;18.60;40.80;;;;;;5012298;28;21040;-52
2022/12/14 09:21:55;;;;;;;8.30;8.10;;;18.60;40.80;;;;;;5012352;28;20917;-56
2022/12/14 09:24:23;;;;;;;7.90;7.70;;;18.60;40.80;;;;;;5012526;28;20445;-54
2022/12/14 09:26:50;;;;;;;8.80;8.50;;;18.60;40.80;;;;;;5012394;28;20482;-56
2022/12/14 09:29:18;;;;;;;8.90;8.60;;;18.60;40.80;;;;;;5012158;28;20499;-54
2022/12/14 09:31:45;;;;;;;8.33;8.13;;;18.60;40.80;;;;;;5011662;28;20568;-53
2022/12/14 09:34:12;;;;;;;8.90;8.60;;;18.60;40.80;;;;;;5012261;28;20533;-53
2022/12/14 09:36:39;;;;;;;8.70;8.30;;;18.60;40.80;;;;;;5012424;28;20950;-55
2022/12/14 09:39:07;;;;;;;8.53;8.30;;;18.60;40.80;;;;;;5012141;28;20556;-57
2022/12/14 09:41:54;;;;;;;8.67;8.37;;;18.60;40.80;;;;;;5012494;28;20445;-56
2022/12/14 09:44:30;;;;;;;9.23;8.83;;;18.50;40.80;;;;;;5012207;28;20449;-53
2022/12/14 09:47:02;;;;;;;8.90;8.60;;;18.50;40.80;;;;;;5011978;28;20510;-58
2022/12/14 09:49:31;;;;;;;8.53;8.13;;;18.50;40.80;;;;;;5011834;28;20562;-56
2022/12/14 09:52:01;;;;;;;8.77;8.47;;;18.50;40.70;;;;;;5011973;28;20870;-55
2022/12/14 09:54:32;;;;;;;9.10;8.60;;;18.50;40.70;;;;;;5012279;28;20442;-55
2022/12/14 09:57:04;;;;;;;8.33;8.13;;;18.50;40.70;;;;;;5012099;28;20450;-53
2022/12/14 09:59:32;;;;;;;8.53;8.23;;;18.50;40.70;;;;;;5012039;28;20493;-57
2022/12/14 10:02:15;;;;;;;9.43;9.03;;;18.50;40.70;;;;;;5011930;28;20537;-56
2022/12/14 10:04:52;;;;;;;9.00;8.70;;;18.50;40.70;;;;;;5011876;28;20537;-56
2022/12/14 10:07:26;;;;;;;9.23;8.83;;;18.50;40.70;;;;;;5011810;28;20481;-54
2022/12/14 10:10:04;;;;;;;9.60;9.20;;;18.50;40.70;;;;;;5011753;28;21040;-56
2022/12/14 10:12:47;;;;;;;9.30;9.00;;;18.50;40.70;;;;;;5011827;28;20896;-58
2022/12/14 10:15:26;;;;;;;9.50;9.00;;;18.60;40.70;;;;;;5011972;28;20867;-53
2022/12/14 10:18:07;;;;;;;9.40;9.10;;;18.50;40.60;;;;;;5011740;28;20521;-53
2022/12/14 10:20:41;;;;;;;9.37;9.00;;;18.50;40.60;;;;;;5011624;28;20537;-55
2022/12/14 10:23:13;;;;;;;9.73;9.33;;;18.50;40.60;;;;;;5012015;28;20537;-54
2022/12/14 10:25:45;;;;;;;9.47;9.07;;;18.50;40.60;;;;;;5011554;28;20542;-57
2022/12/14 10:28:18;;;;;;;8.97;8.63;;;18.50;40.60;;;;;;5011618;28;20466;-54
2022/12/14 10:30:46;;;;;;;9.57;9.13;;;18.50;40.60;;;;;;5011467;28;20450;-58
2022/12/14 10:33:23;;;;;;;9.33;8.83;;;18.50;40.60;;;;;;5011878;28;20541;-54
2022/12/14 10:35:52;;;;;;;9.60;9.23;;;18.50;40.60;;;;;;5011441;28;20512;-55
2022/12/14 10:38:28;;;;;;;10.00;9.60;;;18.50;40.60;;;;;;5011530;28;20548;-56
2022/12/14 10:41:02;;;;;;;9.00;8.70;;;18.50;40.60;;;;;;5011405;28;20442;-56
2022/12/14 10:43:41;;;;;;;9.47;9.07;;;18.40;40.50;;;;;;5012054;28;20452;-59
2022/12/14 10:46:18;;;;;;;9.60;9.23;;;18.40;40.50;;;;;;5015520;28;20481;-54
2022/12/14 10:48:53;;;;;;;9.10;8.77;;;18.40;40.50;;;;;;5015113;28;21202;-56
2022/12/14 10:51:25;;;;;;;8.93;8.50;;;18.40;40.50;;;;;;5015361;28;20534;-56
2022/12/14 10:53:55;;;;;;;9.00;8.70;;;18.40;40.50;;;;;;5015342;28;20871;-58
2022/12/14 10:56:27;;;;;;;8.77;8.47;;;18.40;40.50;;;;;;5015164;28;20528;-57
2022/12/14 10:59:24;;;;;;;8.63;8.33;;;18.30;40.40;;;;;;5015316;28;20548;-53
2022/12/14 11:01:54;;;;;;;9.57;9.17;;;18.30;40.40;;;;;;5015000;28;20453;-54
2022/12/14 11:04:30;;;;;;;9.80;9.30;;;18.30;40.40;;;;;;5015067;28;20445;-54
2022/12/14 11:06:58;;;;;;;8.53;8.33;;;18.30;40.40;;;;;;5014902;28;20495;-57
2022/12/14 11:09:26;;;;;;;8.40;8.20;;;18.30;40.50;;;;;;5014753;28;21089;-53
2022/12/14 11:12:02;;;;;;;9.37;9.07;;;18.30;40.50;;;;;;5014964;28;20817;-55
2022/12/14 11:14:29;;;;;;;9.13;8.87;;;18.30;40.50;;;;;;5014870;28;20463;-58
2022/12/14 11:16:56;;;;;;;9.13;8.83;;;18.30;40.50;;;;;;5014798;28;20499;-54
2022/12/14 11:19:25;;;;;;;9.67;9.37;;;18.30;40.50;;;;;;5014563;28;20556;-58
2022/12/14 11:22:06;;;;;;;9.60;9.20;;;18.30;40.60;;;;;;5014644;28;20450;-56
2022/12/14 11:24:42;;;;;;;9.27;8.87;;;18.30;40.60;;;;;;5014911;28;20450;-57
2022/12/14 11:27:11;;;;;;;9.40;9.10;;;18.20;40.50;;;;;;5014598;28;20485;-55
2022/12/14 11:29:39;;;;;;;9.63;9.23;;;18.30;41.10;;;;;;5014479;28;20449;-55
2022/12/14 11:32:07;;;;;;;9.20;8.90;;;18.30;40.60;;;;;;5014423;28;20452;-55
2022/12/14 11:34:37;;;;;;;9.70;9.30;;;18.20;40.50;;;;;;5014567;28;20450;-59
2022/12/14 11:37:20;;;;;;;8.90;8.60;;;18.20;40.50;;;;;;5014727;28;20442;-55
2022/12/14 11:39:51;;;;;;;9.27;8.97;;;18.20;40.50;;;;;;5014479;28;21047;-54
2022/12/14 11:42:21;;;;;;;9.63;9.27;;;18.20;40.50;;;;;;5014345;28;20537;-59
2022/12/14 11:44:50;;;;;;;9.40;9.10;;;18.20;40.50;;;;;;5014296;28;20536;-56
2022/12/14 11:47:19;;;;;;;9.00;8.73;;;18.20;40.50;;;;;;5013923;28;20572;-57
2022/12/14 11:49:47;;;;;;;9.40;9.10;;;18.20;40.50;;;;;;5014034;28;20552;-56
2022/12/14 11:52:18;;;;;;;9.47;9.17;;;18.20;40.50;;;;;;5014136;28;20537;-55
2022/12/14 11:54:47;;;;;;;9.63;9.23;;;18.20;40.50;;;;;;5013645;28;20622;-57
2022/12/14 11:57:24;;;;;;;9.47;9.17;;;18.30;40.60;;;;;;5014061;28;20524;-57
2022/12/14 11:59:54;;;;;;;10.67;10.17;;;18.30;40.60;;;;;;5013885;28;20453;-58
2022/12/14 12:02:27;;;;;;;9.67;9.37;;;18.30;40.50;;;;;;5013884;28;20446;-56
2022/12/14 12:04:59;;;;;;;9.90;9.60;;;18.30;40.50;;;;;;5013879;28;20759;-54
2022/12/14 12:07:30;;;;;;;8.97;8.77;;;18.40;40.50;;;;;;5013867;28;20865;-57
2022/12/14 12:10:02;;;;;;;8.40;8.20;;;18.40;40.50;;;;;;5013723;28;20655;-54
2022/12/14 12:12:31;;;;;;;9.07;8.77;;;18.40;40.40;;;;;;5013883;28;20460;-55
2022/12/14 12:14:59;;;;;;;9.13;8.90;;;18.40;40.40;;;;;;5013612;28;20456;-57
2022/12/14 12:17:42;;;;;;;9.03;8.63;;;18.40;40.40;;;;;;5013610;28;20493;-55
2022/12/14 12:20:19;;;;;;;8.43;8.23;;;18.40;40.40;;;;;;5010839;28;20472;-57
2022/12/14 12:22:51;;;;;;;9.37;8.70;;;18.40;40.40;;;;;;5013640;28;20830;-58
2022/12/14 12:25:22;;;;;;;9.47;9.07;;;18.40;40.30;;;;;;5013491;28;20453;-58
2022/12/14 12:27:58;;;;;;;8.80;8.53;;;18.40;40.30;;;;;;5013311;28;20907;-57
2022/12/14 12:30:28;;;;;;;8.27;8.00;;;18.40;40.30;;;;;;5013277;28;20464;-58
2022/12/14 12:32:59;;;;;;;8.80;8.43;;;18.30;40.20;;;;;;5013351;28;20453;-54
2022/12/14 12:35:35;;;;;;;9.27;8.97;;;18.30;40.20;;;;;;5013409;28;20446;-59
2022/12/14 12:38:06;;;;;;;8.90;8.60;;;18.30;40.20;;;;;;5013258;28;20547;-55
2022/12/14 12:40:37;;;;;;;9.53;9.20;;;18.30;40.20;;;;;;5013327;28;20442;-58
2022/12/14 12:43:13;;;;;;;9.17;8.87;;;18.30;40.30;;;;;;5013263;28;20445;-53
2022/12/14 12:45:45;;;;;;;9.83;9.43;;;18.30;40.30;;;;;;5013166;28;20885;-57
2022/12/14 12:48:19;;;;;;;9.03;8.83;;;18.30;40.30;;;;;;5012996;28;21060;-55
2022/12/14 12:50:51;;;;;;;9.20;8.90;;;18.30;40.30;;;;;;5013015;28;20450;-57
2022/12/14 12:53:24;;;;;;;9.60;9.30;;;18.30;40.30;;;;;;5013112;28;20446;-57
2022/12/14 12:55:53;;;;;;;9.83;9.37;;;18.30;40.30;;;;;;5013031;28;20532;-59
2022/12/14 12:58:25;;;;;;;10.30;9.77;;;18.30;40.30;;;;;;5012885;28;20544;-60
2022/12/14 13:00:55;;;;;;;9.00;8.70;;;18.30;40.30;;;;;;5012787;28;20877;-59
2022/12/14 13:03:27;;;;;;;9.13;8.83;;;18.30;40.20;;;;;;5013170;28;20533;-58
2022/12/14 13:05:57;;;;;;;9.23;8.93;;;18.30;40.20;;;;;;5012473;28;20529;-60
2022/12/14 13:08:26;;;;;;;9.33;9.03;;;18.30;40.20;;;;;;5012355;28;20507;-56
2022/12/14 13:10:56;;;;;;;9.40;9.00;;;18.20;40.20;;;;;;5012602;28;20478;-58
2022/12/14 13:13:29;;;;;;;8.90;8.60;;;18.20;40.20;;;;;;5013009;28;20462;-55
2022/12/14 13:15:59;;;;;;;9.73;9.27;;;18.20;40.20;;;;;;5012817;28;20445;-56